sensor_id;sensor_type;location;lat;lon;timestamp;pressure;altitude;pressure_sealevel;temperature;humidity
11712;BME280;5912;51.034;6.984;2023-06-10T00:02:15;56077.91;;;-142.13;43.99
11712;BME280;5912;51.034;6.984;2023-06-10T00:04:42;56077.91;;;-142.13;44.20
11712;BME280;5912;51.034;6.984;2023-06-10T00:07:08;56055.84;;;-142.13;44.47
11712;BME280;5912;51.034;6.984;2023-06-10T00:09:35;56063.88;;;-142.13;44.55
11712;BME280;5912;51.034;6.984;2023-06-10T00:12:02;56067.88;;;-142.13;44.47
11712;BME280;5912;51.034;6.984;2023-06-10T00:14:28;56079.91;;;-142.13;44.54
11712;BME280;5912;51.034;6.984;2023-06-10T00:16:53;56075.88;;;-142.13;44.71
11712;BME280;5912;51.034;6.984;2023-06-10T00:19:20;56071.88;;;-142.13;44.70
11712;BME280;5912;51.034;6.984;2023-06-10T00:21:50;56097.94;;;-142.13;45.14
11712;BME280;5912;51.034;6.984;2023-06-10T00:24:17;56061.88;;;-142.13;45.17
11712;BME280;5912;51.034;6.984;2023-06-10T00:26:43;56077.91;;;-142.13;45.67
11712;BME280;5912;51.034;6.984;2023-06-10T00:29:08;56069.88;;;-142.13;45.97
11712;BME280;5912;51.034;6.984;2023-06-10T00:31:37;56089.91;;;-142.13;46.40
11712;BME280;5912;51.034;6.984;2023-06-10T00:34:03;56103.94;;;-142.13;46.76
11712;BME280;5912;51.034;6.984;2023-06-10T00:36:29;56111.94;;;-142.13;47.30
11712;BME280;5912;51.034;6.984;2023-06-10T00:38:54;56125.97;;;-142.13;47.70
11712;BME280;5912;51.034;6.984;2023-06-10T00:41:20;56095.91;;;-142.13;47.79
11712;BME280;5912;51.034;6.984;2023-06-10T00:43:45;56099.94;;;-142.13;48.46
11712;BME280;5912;51.034;6.984;2023-06-10T00:46:11;56127.97;;;-142.13;48.55
11712;BME280;5912;51.034;6.984;2023-06-10T00:48:38;56103.94;;;-142.13;48.94
11712;BME280;5912;51.034;6.984;2023-06-10T00:51:05;56135.97;;;-142.13;48.98
11712;BME280;5912;51.034;6.984;2023-06-10T00:53:30;56111.94;;;-142.13;49.17
11712;BME280;5912;51.034;6.984;2023-06-10T00:55:57;56142.00;;;-142.13;48.63
11712;BME280;5912;51.034;6.984;2023-06-10T00:58:23;56061.88;;;-142.13;48.88
11712;BME280;5912;51.034;6.984;2023-06-10T01:00:49;56135.97;;;-142.13;48.90
11712;BME280;5912;51.034;6.984;2023-06-10T01:03:15;56091.91;;;-142.13;49.03
11712;BME280;5912;51.034;6.984;2023-06-10T01:05:42;56140.00;;;-142.13;48.86
11712;BME280;5912;51.034;6.984;2023-06-10T01:10:55;56117.97;;;-142.13;49.23
11712;BME280;5912;51.034;6.984;2023-06-10T01:13:23;56150.00;;;-142.13;50.04
11712;BME280;5912;51.034;6.984;2023-06-10T01:15:54;56142.00;;;-142.13;50.48
11712;BME280;5912;51.034;6.984;2023-06-10T01:18:19;56133.97;;;-142.13;51.21
11712;BME280;5912;51.034;6.984;2023-06-10T01:20:47;56135.97;;;-142.13;51.36
11712;BME280;5912;51.034;6.984;2023-06-10T01:23:14;56127.97;;;-142.13;51.84
11712;BME280;5912;51.034;6.984;2023-06-10T01:25:49;56166.03;;;-142.13;52.46
11712;BME280;5912;51.034;6.984;2023-06-10T01:28:22;56135.97;;;-142.13;53.02
11712;BME280;5912;51.034;6.984;2023-06-10T01:31:02;56164.03;;;-142.13;53.44
11712;BME280;5912;51.034;6.984;2023-06-10T01:33:36;56123.97;;;-142.13;54.23
11712;BME280;5912;51.034;6.984;2023-06-10T01:36:03;56154.00;;;-142.13;54.25
11712;BME280;5912;51.034;6.984;2023-06-10T01:41:52;56180.06;;;-142.13;55.46
11712;BME280;5912;51.034;6.984;2023-06-10T01:44:19;56176.03;;;-142.13;55.50
11712;BME280;5912;51.034;6.984;2023-06-10T01:46:44;56047.84;;;-142.13;56.14
11712;BME280;5912;51.034;6.984;2023-06-10T01:49:10;56168.03;;;-142.13;56.31
11712;BME280;5912;51.034;6.984;2023-06-10T01:51:35;56184.06;;;-142.13;56.46
11712;BME280;5912;51.034;6.984;2023-06-10T01:54:01;56206.09;;;-142.13;57.17
11712;BME280;5912;51.034;6.984;2023-06-10T01:56:26;56178.03;;;-142.13;57.35
11712;BME280;5912;51.034;6.984;2023-06-10T01:58:52;56164.03;;;-142.13;58.00
11712;BME280;5912;51.034;6.984;2023-06-10T02:01:20;56156.00;;;-142.13;58.38
11712;BME280;5912;51.034;6.984;2023-06-10T02:03:45;56180.06;;;-142.13;58.32
11712;BME280;5912;51.034;6.984;2023-06-10T02:06:10;56180.06;;;-142.13;58.93
11712;BME280;5912;51.034;6.984;2023-06-10T02:08:35;56216.09;;;-142.13;59.32
11712;BME280;5912;51.034;6.984;2023-06-10T02:11:01;56198.06;;;-142.13;58.88
11712;BME280;5912;51.034;6.984;2023-06-10T02:13:26;56178.03;;;-142.13;59.55
11712;BME280;5912;51.034;6.984;2023-06-10T02:15:51;56170.03;;;-142.13;59.35
11712;BME280;5912;51.034;6.984;2023-06-10T02:18:19;56194.06;;;-142.13;59.72
11712;BME280;5912;51.034;6.984;2023-06-10T02:20:46;56168.03;;;-142.13;59.68
11712;BME280;5912;51.034;6.984;2023-06-10T02:23:11;56192.06;;;-142.13;59.16
11712;BME280;5912;51.034;6.984;2023-06-10T02:25:36;56208.09;;;-142.13;58.63
11712;BME280;5912;51.034;6.984;2023-06-10T02:28:02;56214.09;;;-142.13;59.03
11712;BME280;5912;51.034;6.984;2023-06-10T02:30:28;56184.06;;;-142.13;58.73
11712;BME280;5912;51.034;6.984;2023-06-10T02:32:53;56200.09;;;-142.13;58.73
11712;BME280;5912;51.034;6.984;2023-06-10T02:35:21;56172.03;;;-142.13;58.94
11712;BME280;5912;51.034;6.984;2023-06-10T02:37:47;56210.09;;;-142.13;58.83
11712;BME280;5912;51.034;6.984;2023-06-10T02:40:13;56192.06;;;-142.13;59.29
11712;BME280;5912;51.034;6.984;2023-06-10T02:42:38;56178.03;;;-142.13;59.47
11712;BME280;5912;51.034;6.984;2023-06-10T02:45:04;56204.09;;;-142.13;59.92
11712;BME280;5912;51.034;6.984;2023-06-10T02:47:29;56188.06;;;-142.13;60.05
11712;BME280;5912;51.034;6.984;2023-06-10T02:49:55;56202.09;;;-142.13;60.49
11712;BME280;5912;51.034;6.984;2023-06-10T02:52:20;56196.06;;;-142.13;60.49
11712;BME280;5912;51.034;6.984;2023-06-10T02:54:46;56194.06;;;-142.13;60.64
11712;BME280;5912;51.034;6.984;2023-06-10T02:57:11;56198.06;;;-142.13;61.01
11712;BME280;5912;51.034;6.984;2023-06-10T02:59:36;56220.13;;;-142.13;61.10
11712;BME280;5912;51.034;6.984;2023-06-10T03:02:02;56212.09;;;-142.13;61.73
11712;BME280;5912;51.034;6.984;2023-06-10T03:04:27;56222.13;;;-142.13;61.64
11712;BME280;5912;51.034;6.984;2023-06-10T03:06:54;56192.06;;;-142.13;62.03
11712;BME280;5912;51.034;6.984;2023-06-10T03:09:19;56236.13;;;-142.13;62.22
11712;BME280;5912;51.034;6.984;2023-06-10T03:11:45;56230.13;;;-142.13;62.50
11712;BME280;5912;51.034;6.984;2023-06-10T03:14:10;56216.09;;;-142.13;62.73
11712;BME280;5912;51.034;6.984;2023-06-10T03:16:35;56224.13;;;-142.13;63.01
11712;BME280;5912;51.034;6.984;2023-06-10T03:19:01;56208.09;;;-142.13;62.96
11712;BME280;5912;51.034;6.984;2023-06-10T03:21:26;56230.13;;;-142.13;63.15
11712;BME280;5912;51.034;6.984;2023-06-10T03:23:52;56228.13;;;-142.13;63.44
11712;BME280;5912;51.034;6.984;2023-06-10T03:26:17;56254.16;;;-142.13;63.62
11712;BME280;5912;51.034;6.984;2023-06-10T03:28:42;56242.16;;;-142.13;63.84
11712;BME280;5912;51.034;6.984;2023-06-10T03:31:07;56218.09;;;-142.13;63.79
11712;BME280;5912;51.034;6.984;2023-06-10T03:33:33;56224.13;;;-142.13;64.18
11712;BME280;5912;51.034;6.984;2023-06-10T03:35:59;56190.06;;;-142.13;64.39
11712;BME280;5912;51.034;6.984;2023-06-10T03:38:24;56186.06;;;-142.13;64.53
11712;BME280;5912;51.034;6.984;2023-06-10T03:40:49;56222.13;;;-142.13;64.88
11712;BME280;5912;51.034;6.984;2023-06-10T03:43:15;56230.13;;;-142.13;64.96
11712;BME280;5912;51.034;6.984;2023-06-10T03:45:40;56222.13;;;-142.13;65.04
11712;BME280;5912;51.034;6.984;2023-06-10T03:48:06;56248.16;;;-142.13;65.11
11712;BME280;5912;51.034;6.984;2023-06-10T03:50:33;56214.09;;;-142.13;65.08
11712;BME280;5912;51.034;6.984;2023-06-10T03:52:58;56206.09;;;-142.13;65.30
11712;BME280;5912;51.034;6.984;2023-06-10T03:55:24;56216.09;;;-142.13;65.29
11712;BME280;5912;51.034;6.984;2023-06-10T03:57:49;56228.13;;;-142.13;65.37
11712;BME280;5912;51.034;6.984;2023-06-10T04:00:16;56248.16;;;-142.13;65.49
11712;BME280;5912;51.034;6.984;2023-06-10T04:02:44;56232.13;;;-142.13;65.33
11712;BME280;5912;51.034;6.984;2023-06-10T04:05:14;56208.09;;;-142.13;65.20
11712;BME280;5912;51.034;6.984;2023-06-10T04:07:40;56216.09;;;-142.13;65.14
11712;BME280;5912;51.034;6.984;2023-06-10T04:10:08;56232.13;;;-142.13;65.05
11712;BME280;5912;51.034;6.984;2023-06-10T04:12:34;56228.13;;;-142.13;65.16
11712;BME280;5912;51.034;6.984;2023-06-10T04:15:00;56228.13;;;-142.13;65.06
11712;BME280;5912;51.034;6.984;2023-06-10T04:17:25;56236.13;;;-142.13;65.06
11712;BME280;5912;51.034;6.984;2023-06-10T04:19:51;56200.09;;;-142.13;64.88
11712;BME280;5912;51.034;6.984;2023-06-10T04:22:17;56232.13;;;-142.13;65.04
11712;BME280;5912;51.034;6.984;2023-06-10T04:24:43;56214.09;;;-142.13;65.07
11712;BME280;5912;51.034;6.984;2023-06-10T04:27:08;56214.09;;;-142.13;65.22
11712;BME280;5912;51.034;6.984;2023-06-10T04:29:33;56180.06;;;-142.13;65.06
11712;BME280;5912;51.034;6.984;2023-06-10T04:31:59;56200.09;;;-142.13;64.86
11712;BME280;5912;51.034;6.984;2023-06-10T04:34:25;56198.06;;;-142.13;65.20
11712;BME280;5912;51.034;6.984;2023-06-10T04:36:50;56218.09;;;-142.13;65.30
11712;BME280;5912;51.034;6.984;2023-06-10T04:39:16;56210.09;;;-142.13;64.71
11712;BME280;5912;51.034;6.984;2023-06-10T04:41:42;56188.06;;;-142.13;64.98
11712;BME280;5912;51.034;6.984;2023-06-10T04:44:07;56222.13;;;-142.13;65.17
11712;BME280;5912;51.034;6.984;2023-06-10T04:46:32;56166.03;;;-142.13;65.42
11712;BME280;5912;51.034;6.984;2023-06-10T04:48:58;56204.09;;;-142.13;65.38
11712;BME280;5912;51.034;6.984;2023-06-10T04:51:23;56196.06;;;-142.13;65.06
11712;BME280;5912;51.034;6.984;2023-06-10T04:53:49;56186.06;;;-142.13;64.90
11712;BME280;5912;51.034;6.984;2023-06-10T04:56:14;56154.00;;;-142.13;64.93
11712;BME280;5912;51.034;6.984;2023-06-10T04:58:40;56172.03;;;-142.13;64.73
11712;BME280;5912;51.034;6.984;2023-06-10T05:01:05;56192.06;;;-142.13;64.66
11712;BME280;5912;51.034;6.984;2023-06-10T05:03:31;56133.97;;;-142.13;64.38
11712;BME280;5912;51.034;6.984;2023-06-10T05:05:56;56160.03;;;-142.13;64.27
11712;BME280;5912;51.034;6.984;2023-06-10T05:08:21;56150.00;;;-142.13;64.19
11712;BME280;5912;51.034;6.984;2023-06-10T05:10:47;56111.94;;;-142.13;63.29
11712;BME280;5912;51.034;6.984;2023-06-10T05:13:12;56127.97;;;-142.13;62.74
11712;BME280;5912;51.034;6.984;2023-06-10T05:15:37;56117.97;;;-142.13;62.13
11712;BME280;5912;51.034;6.984;2023-06-10T05:18:03;56150.00;;;-142.13;61.44
11712;BME280;5912;51.034;6.984;2023-06-10T05:20:28;56113.94;;;-142.13;60.79
11712;BME280;5912;51.034;6.984;2023-06-10T05:22:54;56123.97;;;-142.13;60.55
11712;BME280;5912;51.034;6.984;2023-06-10T05:25:19;56101.94;;;-142.13;60.26
11712;BME280;5912;51.034;6.984;2023-06-10T05:27:45;56091.91;;;-142.13;59.97
11712;BME280;5912;51.034;6.984;2023-06-10T05:30:10;56111.94;;;-142.13;59.61
11712;BME280;5912;51.034;6.984;2023-06-10T05:32:36;56075.88;;;-142.13;59.21
11712;BME280;5912;51.034;6.984;2023-06-10T05:35:01;56081.91;;;-142.13;58.09
11712;BME280;5912;51.034;6.984;2023-06-10T05:37:28;56079.91;;;-142.13;58.01
11712;BME280;5912;51.034;6.984;2023-06-10T05:39:54;56095.91;;;-142.13;57.24
11712;BME280;5912;51.034;6.984;2023-06-10T05:42:19;56079.91;;;-142.13;56.73
11712;BME280;5912;51.034;6.984;2023-06-10T05:44:44;56079.91;;;-142.13;55.65
11712;BME280;5912;51.034;6.984;2023-06-10T05:47:10;56061.88;;;-142.13;54.92
11712;BME280;5912;51.034;6.984;2023-06-10T05:49:35;56067.88;;;-142.13;54.11
11712;BME280;5912;51.034;6.984;2023-06-10T05:52:00;56063.88;;;-142.13;53.54
11712;BME280;5912;51.034;6.984;2023-06-10T05:54:26;56045.84;;;-142.13;52.97
11712;BME280;5912;51.034;6.984;2023-06-10T05:56:51;56059.88;;;-142.13;52.42
11712;BME280;5912;51.034;6.984;2023-06-10T05:59:17;56007.78;;;-142.13;51.41
11712;BME280;5912;51.034;6.984;2023-06-10T06:01:42;56007.78;;;-142.13;49.24
11712;BME280;5912;51.034;6.984;2023-06-10T06:04:07;56035.81;;;-142.13;46.87
11712;BME280;5912;51.034;6.984;2023-06-10T06:06:33;55993.75;;;-142.13;43.82
11712;BME280;5912;51.034;6.984;2023-06-10T06:08:58;55961.72;;;-142.13;42.33
11712;BME280;5912;51.034;6.984;2023-06-10T06:11:23;55931.66;;;-142.13;41.42
11712;BME280;5912;51.034;6.984;2023-06-10T06:13:50;55895.63;;;-142.13;40.36
11712;BME280;5912;51.034;6.984;2023-06-10T06:16:16;55925.66;;;-142.13;39.17
11712;BME280;5912;51.034;6.984;2023-06-10T06:18:43;55891.63;;;-142.13;38.04
11712;BME280;5912;51.034;6.984;2023-06-10T06:21:08;55869.59;;;-142.13;37.44
11712;BME280;5912;51.034;6.984;2023-06-10T06:23:33;55867.56;;;-142.13;35.86
11712;BME280;5912;51.034;6.984;2023-06-10T06:25:59;55841.53;;;-142.13;34.60
11712;BME280;5912;51.034;6.984;2023-06-10T06:28:24;55819.50;;;-142.13;32.51
11712;BME280;5912;51.034;6.984;2023-06-10T06:30:54;55799.47;;;-142.13;31.67
11712;BME280;5912;51.034;6.984;2023-06-10T06:33:19;55779.44;;;-142.13;31.03
11712;BME280;5912;51.034;6.984;2023-06-10T06:35:45;55759.41;;;-142.13;30.78
11712;BME280;5912;51.034;6.984;2023-06-10T06:38:10;55771.44;;;-142.13;30.75
11712;BME280;5912;51.034;6.984;2023-06-10T06:40:35;55731.38;;;-142.13;30.07
11712;BME280;5912;51.034;6.984;2023-06-10T06:43:01;55713.34;;;-142.13;28.97
11712;BME280;5912;51.034;6.984;2023-06-10T06:45:26;55693.31;;;-142.13;29.10
11712;BME280;5912;51.034;6.984;2023-06-10T06:47:51;55703.34;;;-142.13;28.58
11712;BME280;5912;51.034;6.984;2023-06-10T06:50:17;55681.31;;;-142.13;27.94
11712;BME280;5912;51.034;6.984;2023-06-10T06:52:42;55671.28;;;-142.13;27.58
11712;BME280;5912;51.034;6.984;2023-06-10T06:55:08;55691.31;;;-142.13;27.88
11712;BME280;5912;51.034;6.984;2023-06-10T06:57:33;55677.31;;;-142.13;27.23
11712;BME280;5912;51.034;6.984;2023-06-10T06:59:58;55651.25;;;-142.13;27.20
11712;BME280;5912;51.034;6.984;2023-06-10T07:02:24;55641.25;;;-142.13;27.53
11712;BME280;5912;51.034;6.984;2023-06-10T07:04:49;55659.28;;;-142.13;26.89
11712;BME280;5912;51.034;6.984;2023-06-10T07:07:15;55635.25;;;-142.13;26.61
11712;BME280;5912;51.034;6.984;2023-06-10T07:09:40;55619.22;;;-142.13;26.91
11712;BME280;5912;51.034;6.984;2023-06-10T07:12:06;55641.25;;;-142.13;26.63
11712;BME280;5912;51.034;6.984;2023-06-10T07:14:31;55599.19;;;-142.13;26.34
11712;BME280;5912;51.034;6.984;2023-06-10T07:16:57;55587.19;;;-142.13;25.99
11712;BME280;5912;51.034;6.984;2023-06-10T07:19:22;55577.16;;;-142.13;26.02
11712;BME280;5912;51.034;6.984;2023-06-10T07:21:47;55589.19;;;-142.13;25.68
11712;BME280;5912;51.034;6.984;2023-06-10T07:24:13;55567.16;;;-142.13;25.72
11712;BME280;5912;51.034;6.984;2023-06-10T07:26:38;55559.13;;;-142.13;25.70
11712;BME280;5912;51.034;6.984;2023-06-10T07:29:03;55557.13;;;-142.13;25.43
11712;BME280;5912;51.034;6.984;2023-06-10T07:31:29;55555.13;;;-142.13;25.72
11712;BME280;5912;51.034;6.984;2023-06-10T07:33:54;55539.09;;;-142.13;25.38
11712;BME280;5912;51.034;6.984;2023-06-10T07:36:19;55535.09;;;-142.13;24.99
11712;BME280;5912;51.034;6.984;2023-06-10T07:38:45;55503.06;;;-142.13;24.98
11712;BME280;5912;51.034;6.984;2023-06-10T07:41:10;55483.03;;;-142.13;24.67
11712;BME280;5912;51.034;6.984;2023-06-10T07:43:36;55479.03;;;-142.13;24.40
11712;BME280;5912;51.034;6.984;2023-06-10T07:46:02;55483.03;;;-142.13;24.40
11712;BME280;5912;51.034;6.984;2023-06-10T07:48:28;55459.00;;;-142.13;23.94
11712;BME280;5912;51.034;6.984;2023-06-10T07:50:53;55457.00;;;-142.13;23.17
11712;BME280;5912;51.034;6.984;2023-06-10T07:53:18;55446.97;;;-142.13;23.26
11712;BME280;5912;51.034;6.984;2023-06-10T07:55:44;55453.00;;;-142.13;23.40
11712;BME280;5912;51.034;6.984;2023-06-10T07:58:09;55436.97;;;-142.13;23.71
11712;BME280;5912;51.034;6.984;2023-06-10T08:00:35;55446.97;;;-142.13;23.32
11712;BME280;5912;51.034;6.984;2023-06-10T08:03:00;55444.97;;;-142.13;23.38
11712;BME280;5912;51.034;6.984;2023-06-10T08:05:25;55434.97;;;-142.13;22.76
11712;BME280;5912;51.034;6.984;2023-06-10T08:07:51;55442.97;;;-142.13;22.96
11712;BME280;5912;51.034;6.984;2023-06-10T08:10:16;55442.97;;;-142.13;23.02
11712;BME280;5912;51.034;6.984;2023-06-10T08:12:42;55426.94;;;-142.13;22.89
11712;BME280;5912;51.034;6.984;2023-06-10T08:15:07;55402.91;;;-142.13;22.96
11712;BME280;5912;51.034;6.984;2023-06-10T08:17:33;55406.94;;;-142.13;22.85
11712;BME280;5912;51.034;6.984;2023-06-10T08:19:58;55408.94;;;-142.13;22.65
11712;BME280;5912;51.034;6.984;2023-06-10T08:22:23;55404.94;;;-142.13;22.76
11712;BME280;5912;51.034;6.984;2023-06-10T08:24:49;55404.94;;;-142.13;22.47
11712;BME280;5912;51.034;6.984;2023-06-10T08:27:14;55394.91;;;-142.13;22.56
11712;BME280;5912;51.034;6.984;2023-06-10T08:29:40;55394.91;;;-142.13;22.08
11712;BME280;5912;51.034;6.984;2023-06-10T08:32:06;55412.94;;;-142.13;22.00
11712;BME280;5912;51.034;6.984;2023-06-10T08:34:33;55475.03;;;-142.13;22.08
11712;BME280;5912;51.034;6.984;2023-06-10T08:36:59;55394.91;;;-142.13;22.17
11712;BME280;5912;51.034;6.984;2023-06-10T08:39:24;55402.91;;;-142.13;21.57
11712;BME280;5912;51.034;6.984;2023-06-10T08:44:40;55398.91;;;-142.13;21.74
11712;BME280;5912;51.034;6.984;2023-06-10T08:47:14;55426.94;;;-142.13;21.77
11712;BME280;5912;51.034;6.984;2023-06-10T08:49:46;55412.94;;;-142.13;22.48
11712;BME280;5912;51.034;6.984;2023-06-10T08:52:19;55430.97;;;-142.13;22.24
11712;BME280;5912;51.034;6.984;2023-06-10T08:54:59;55422.94;;;-142.13;22.39
11712;BME280;5912;51.034;6.984;2023-06-10T08:57:26;55410.94;;;-142.13;22.81
11712;BME280;5912;51.034;6.984;2023-06-10T08:59:53;55398.91;;;-142.13;22.42
11712;BME280;5912;51.034;6.984;2023-06-10T09:02:19;55406.94;;;-142.13;22.12
11712;BME280;5912;51.034;6.984;2023-06-10T09:04:46;55426.94;;;-142.13;21.88
11712;BME280;5912;51.034;6.984;2023-06-10T09:07:14;55424.94;;;-142.13;22.32
11712;BME280;5912;51.034;6.984;2023-06-10T09:09:42;55416.94;;;-142.13;22.58
11712;BME280;5912;51.034;6.984;2023-06-10T09:12:07;55442.97;;;-142.13;22.30
11712;BME280;5912;51.034;6.984;2023-06-10T09:14:33;55422.94;;;-142.13;23.11
11712;BME280;5912;51.034;6.984;2023-06-10T09:16:58;55430.97;;;-142.13;22.30
11712;BME280;5912;51.034;6.984;2023-06-10T09:19:25;55424.94;;;-142.13;22.64
11712;BME280;5912;51.034;6.984;2023-06-10T09:21:52;55402.91;;;-142.13;22.68
11712;BME280;5912;51.034;6.984;2023-06-10T09:24:18;55410.94;;;-142.13;22.64
11712;BME280;5912;51.034;6.984;2023-06-10T09:26:43;55412.94;;;-142.13;22.53
11712;BME280;5912;51.034;6.984;2023-06-10T09:29:11;55404.94;;;-142.13;21.85
11712;BME280;5912;51.034;6.984;2023-06-10T09:31:38;55448.97;;;-142.13;22.09
11712;BME280;5912;51.034;6.984;2023-06-10T09:34:08;55428.97;;;-142.13;22.73
11712;BME280;5912;51.034;6.984;2023-06-10T09:36:35;55430.97;;;-142.13;23.00
11712;BME280;5912;51.034;6.984;2023-06-10T09:39:01;55420.94;;;-142.13;22.81
11712;BME280;5912;51.034;6.984;2023-06-10T09:41:39;55420.94;;;-142.13;23.25
11712;BME280;5912;51.034;6.984;2023-06-10T09:44:12;55436.97;;;-142.13;23.37
11712;BME280;5912;51.034;6.984;2023-06-10T09:46:38;55406.94;;;-142.13;23.22
11712;BME280;5912;51.034;6.984;2023-06-10T09:49:03;55408.94;;;-142.13;22.60
11712;BME280;5912;51.034;6.984;2023-06-10T09:51:28;55410.94;;;-142.13;22.86
11712;BME280;5912;51.034;6.984;2023-06-10T09:53:54;55396.91;;;-142.13;23.08
11712;BME280;5912;51.034;6.984;2023-06-10T09:56:20;55394.91;;;-142.13;23.12
11712;BME280;5912;51.034;6.984;2023-06-10T09:58:46;55378.88;;;-142.13;23.08
11712;BME280;5912;51.034;6.984;2023-06-10T10:01:13;55366.88;;;-142.13;22.25
11712;BME280;5912;51.034;6.984;2023-06-10T10:03:44;55362.88;;;-142.13;22.16
11712;BME280;5912;51.034;6.984;2023-06-10T10:06:11;55348.84;;;-142.13;22.62
11712;BME280;5912;51.034;6.984;2023-06-10T10:08:36;55358.88;;;-142.13;22.04
11712;BME280;5912;51.034;6.984;2023-06-10T10:11:02;55382.91;;;-142.13;22.09
11712;BME280;5912;51.034;6.984;2023-06-10T10:13:28;55378.88;;;-142.13;22.59
11712;BME280;5912;51.034;6.984;2023-06-10T10:15:56;55372.88;;;-142.13;23.04
11712;BME280;5912;51.034;6.984;2023-06-10T10:18:29;55374.88;;;-142.13;21.68
11712;BME280;5912;51.034;6.984;2023-06-10T10:20:55;55352.84;;;-142.13;21.14
11712;BME280;5912;51.034;6.984;2023-06-10T10:23:29;55348.84;;;-142.13;20.56
11712;BME280;5912;51.034;6.984;2023-06-10T10:25:57;55372.88;;;-142.13;19.99
11712;BME280;5912;51.034;6.984;2023-06-10T10:28:29;55416.94;;;-142.13;21.60
11712;BME280;5912;51.034;6.984;2023-06-10T10:31:08;55422.94;;;-142.13;22.08
11712;BME280;5912;51.034;6.984;2023-06-10T10:33:45;55475.03;;;-142.13;22.98
11712;BME280;5912;51.034;6.984;2023-06-10T10:36:14;55487.03;;;-142.13;22.83
11712;BME280;5912;51.034;6.984;2023-06-10T10:38:41;55479.03;;;-142.13;22.83
11712;BME280;5912;51.034;6.984;2023-06-10T10:41:07;55527.09;;;-142.13;22.91
11712;BME280;5912;51.034;6.984;2023-06-10T10:43:33;55507.06;;;-142.13;23.33
11712;BME280;5912;51.034;6.984;2023-06-10T10:46:08;55531.09;;;-142.13;22.91
11712;BME280;5912;51.034;6.984;2023-06-10T10:48:37;55531.09;;;-142.13;23.16
11712;BME280;5912;51.034;6.984;2023-06-10T10:51:03;55593.19;;;-142.13;22.54
11712;BME280;5912;51.034;6.984;2023-06-10T10:53:29;55469.00;;;-142.13;23.03
11712;BME280;5912;51.034;6.984;2023-06-10T10:56:15;55459.00;;;-142.13;23.47
11712;BME280;5912;51.034;6.984;2023-06-10T10:59:02;55390.91;;;-142.13;23.13
11712;BME280;5912;51.034;6.984;2023-06-10T11:01:39;55394.91;;;-142.13;21.71
11712;BME280;5912;51.034;6.984;2023-06-10T11:04:07;55402.91;;;-142.13;21.29
11712;BME280;5912;51.034;6.984;2023-06-10T11:06:32;55380.88;;;-142.13;20.64
11712;BME280;5912;51.034;6.984;2023-06-10T11:08:57;55408.94;;;-142.13;20.60
11712;BME280;5912;51.034;6.984;2023-06-10T11:11:26;55414.94;;;-142.13;20.63
11712;BME280;5912;51.034;6.984;2023-06-10T11:16:28;55364.88;;;-142.13;20.83
11712;BME280;5912;51.034;6.984;2023-06-10T11:18:54;55358.88;;;-142.13;20.36
11712;BME280;5912;51.034;6.984;2023-06-10T11:21:20;55342.84;;;-142.13;19.73
11712;BME280;5912;51.034;6.984;2023-06-10T11:23:48;55390.91;;;-142.13;20.18
11712;BME280;5912;51.034;6.984;2023-06-10T11:26:20;55430.97;;;-142.13;20.53
11712;BME280;5912;51.034;6.984;2023-06-10T11:31:25;55505.06;;;-142.13;21.79
11712;BME280;5912;51.034;6.984;2023-06-10T11:33:58;55555.13;;;-142.13;22.11
11712;BME280;5912;51.034;6.984;2023-06-10T11:36:27;55559.13;;;-142.13;22.88
11712;BME280;5912;51.034;6.984;2023-06-10T11:39:00;55605.19;;;-142.13;23.36
11712;BME280;5912;51.034;6.984;2023-06-10T11:41:27;55621.22;;;-142.13;23.75
11712;BME280;5912;51.034;6.984;2023-06-10T11:43:54;55627.22;;;-142.13;24.18
11712;BME280;5912;51.034;6.984;2023-06-10T11:46:23;55645.25;;;-142.13;24.44
11712;BME280;5912;51.034;6.984;2023-06-10T11:48:53;55661.28;;;-142.13;24.95
11712;BME280;5912;51.034;6.984;2023-06-10T11:51:18;55649.25;;;-142.13;24.72
11712;BME280;5912;51.034;6.984;2023-06-10T11:53:45;55671.28;;;-142.13;25.20
11712;BME280;5912;51.034;6.984;2023-06-10T11:56:11;55637.25;;;-142.13;24.98
11712;BME280;5912;51.034;6.984;2023-06-10T11:58:36;55663.28;;;-142.13;25.14
11712;BME280;5912;51.034;6.984;2023-06-10T12:01:01;55651.25;;;-142.13;25.24
11712;BME280;5912;51.034;6.984;2023-06-10T12:03:38;55659.28;;;-142.13;25.29
11712;BME280;5912;51.034;6.984;2023-06-10T12:06:06;55659.28;;;-142.13;25.26
11712;BME280;5912;51.034;6.984;2023-06-10T12:08:42;55667.28;;;-142.13;25.56
11712;BME280;5912;51.034;6.984;2023-06-10T12:11:11;55619.22;;;-142.13;24.67
11712;BME280;5912;51.034;6.984;2023-06-10T12:13:46;55555.13;;;-142.13;23.92
11712;BME280;5912;51.034;6.984;2023-06-10T12:16:17;55545.13;;;-142.13;22.61
11712;BME280;5912;51.034;6.984;2023-06-10T12:18:44;55487.03;;;-142.13;22.39
11712;BME280;5912;51.034;6.984;2023-06-10T12:21:25;55467.00;;;-142.13;21.97
11712;BME280;5912;51.034;6.984;2023-06-10T12:24:11;55461.00;;;-142.13;21.73
11712;BME280;5912;51.034;6.984;2023-06-10T12:26:44;55394.91;;;-142.13;21.65
11712;BME280;5912;51.034;6.984;2023-06-10T12:32:15;55350.84;;;-142.13;20.23
11712;BME280;5912;51.034;6.984;2023-06-10T12:34:41;55330.81;;;-142.13;20.16
11712;BME280;5912;51.034;6.984;2023-06-10T12:37:11;55382.91;;;-142.13;20.05
11712;BME280;5912;51.034;6.984;2023-06-10T12:39:40;55390.91;;;-142.13;20.40
11712;BME280;5912;51.034;6.984;2023-06-10T12:42:06;55390.91;;;-142.13;21.48
11712;BME280;5912;51.034;6.984;2023-06-10T12:44:35;55370.88;;;-142.13;21.11
11712;BME280;5912;51.034;6.984;2023-06-10T12:47:10;55384.91;;;-142.13;21.41
11712;BME280;5912;51.034;6.984;2023-06-10T12:49:37;55392.91;;;-142.13;21.85
11712;BME280;5912;51.034;6.984;2023-06-10T12:52:04;55378.88;;;-142.13;21.83
11712;BME280;5912;51.034;6.984;2023-06-10T12:54:30;55420.94;;;-142.13;21.72
11712;BME280;5912;51.034;6.984;2023-06-10T12:56:56;55444.97;;;-142.13;22.02
11712;BME280;5912;51.034;6.984;2023-06-10T12:59:21;55493.03;;;-142.13;22.49
11712;BME280;5912;51.034;6.984;2023-06-10T13:01:55;55527.09;;;-142.13;23.28
11712;BME280;5912;51.034;6.984;2023-06-10T13:04:21;55573.16;;;-142.13;23.08
11712;BME280;5912;51.034;6.984;2023-06-10T13:06:47;55587.19;;;-142.13;23.47